Accueil
METAR-TAF:

METAR-TAF

Aéroports :

Colmar, France

Aéroport de Colmar - Houssen

latitude: 48-06-37N, longitude: 7-21-33E, altitude: 191 m

Observation

Le bulletin a été fait il y a 39 minutes, à 07:30 UTC
Vent 3 kt de sud
Température 9°C
Humidité 87%
Pression 1022 hPa
Visibilité 10 km ou plus
Nuages fragmentés à une hauteur de 4000 ft
Nuages fragmentés à une hauteur de 4600 ft
Ciel couvert à une hauteur de 5400 ft
pluie faible

METAR: LFGA 230730Z AUTO 19003KT 9999 -RA BKN040 BKN046 OVC054 09/07 Q1022

Heure: 10:09 (08:09 UTC)


TAF: absent

Observations et prévisions météorologiques de plus de 4000 aéroports (messages METAR et TAF).

Les stations disponibles sont représentées par des disques jaunes et rouges sur la carte.

Passer la souris dessus pour voir le nom de la station.

Cliquer dessus pour voir les observations et prévisions météorologiques.

Pour changer de carte: cliquez sur les boutons verts avec une croix noire pour zoomer, sur le bouton vert avec un tiret pour effectuer un zoom arrière, ou sur les flèches vertes pour les cartes adjacentes.


METAR-TAF: